createdAt,value
2019-04-30T00:00:25.789Z,1017.91
2019-04-30T00:01:25.142Z,1017.90
2019-04-30T00:02:27.870Z,1017.86
2019-04-30T00:03:25.582Z,1017.87
2019-04-30T00:04:29.965Z,1017.87
2019-04-30T00:05:25.788Z,1017.83
2019-04-30T00:06:27.342Z,1017.81
2019-04-30T00:07:27.121Z,1017.93
2019-04-30T00:08:25.819Z,1017.86
2019-04-30T00:09:26.554Z,1017.82
2019-04-30T00:10:29.514Z,1017.89
2019-04-30T00:11:27.831Z,1017.76
2019-04-30T00:12:26.047Z,1017.81
2019-04-30T00:13:26.197Z,1017.86
2019-04-30T00:14:32.089Z,1017.75
2019-04-30T00:15:29.089Z,1017.82
2019-04-30T00:16:30.944Z,1017.78
2019-04-30T00:17:27.889Z,1017.78
2019-04-30T00:18:30.659Z,1017.76
2019-04-30T00:19:28.265Z,1017.76
2019-04-30T00:20:29.989Z,1017.78
2019-04-30T00:21:29.642Z,1017.75
2019-04-30T00:22:33.966Z,1017.80
2019-04-30T00:23:30.937Z,1017.77
2019-04-30T00:24:29.600Z,1017.77
2019-04-30T00:25:29.087Z,1017.77
2019-04-30T00:26:28.446Z,1017.70
2019-04-30T00:27:30.274Z,1017.77
2019-04-30T00:28:29.752Z,1017.77
2019-04-30T00:29:30.951Z,1017.71
2019-04-30T00:30:30.099Z,1017.68
2019-04-30T00:31:29.198Z,1017.69
2019-04-30T00:32:29.345Z,1017.76
2019-04-30T00:33:29.563Z,1017.74
2019-04-30T00:34:30.891Z,1017.72
2019-04-30T00:35:31.816Z,1017.69
2019-04-30T00:36:34.186Z,1017.69
2019-04-30T00:37:32.222Z,1017.71
2019-04-30T00:38:34.254Z,1017.66
2019-04-30T00:39:31.712Z,1017.64
2019-04-30T00:40:31.583Z,1017.61
2019-04-30T00:41:31.581Z,1017.64
2019-04-30T00:42:31.059Z,1017.56
2019-04-30T00:43:32.078Z,1017.59
2019-04-30T00:44:31.379Z,1017.59
2019-04-30T00:45:32.089Z,1017.57
2019-04-30T00:46:31.697Z,1017.55
2019-04-30T00:47:31.820Z,1017.58
2019-04-30T00:48:31.949Z,1017.50
2019-04-30T00:49:32.086Z,1017.51
2019-04-30T00:50:33.939Z,1017.56
2019-04-30T00:51:35.303Z,1017.54
2019-04-30T00:52:35.220Z,1017.54
2019-04-30T00:53:35.794Z,1017.54
2019-04-30T00:54:32.891Z,1017.59
2019-04-30T00:55:33.099Z,1017.52
2019-04-30T00:56:33.254Z,1017.59
2019-04-30T00:57:38.832Z,1017.55
2019-04-30T00:58:35.620Z,1017.52
2019-04-30T00:59:35.102Z,1017.55
2019-04-30T01:00:35.239Z,1017.55
2019-04-30T01:01:39.266Z,1017.51
2019-04-30T01:02:36.162Z,1017.54
2019-04-30T01:03:39.348Z,1017.51
2019-04-30T01:04:35.615Z,1017.44
2019-04-30T01:05:39.526Z,1017.50
2019-04-30T01:06:35.920Z,1017.50
2019-04-30T01:07:40.079Z,1017.52
2019-04-30T01:08:36.392Z,1017.52
2019-04-30T01:09:39.551Z,1017.47
2019-04-30T01:10:36.743Z,1017.51
2019-04-30T01:11:39.759Z,1017.48
2019-04-30T01:12:44.308Z,1017.42
2019-04-30T01:13:41.426Z,1017.44
2019-04-30T01:14:39.082Z,1017.47
2019-04-30T01:15:39.067Z,1017.51
2019-04-30T01:16:36.812Z,1017.47
2019-04-30T01:17:38.237Z,1017.45
2019-04-30T01:18:38.982Z,1017.46
2019-04-30T01:19:39.612Z,1017.45
2019-04-30T01:20:40.560Z,1017.43
2019-04-30T01:21:46.528Z,1017.38
2019-04-30T01:22:39.882Z,1017.40
2019-04-30T01:23:41.821Z,1017.40
2019-04-30T01:24:41.105Z,1017.38
2019-04-30T01:25:38.864Z,1017.36
2019-04-30T01:26:39.542Z,1017.42
2019-04-30T01:27:39.445Z,1017.42
2019-04-30T01:28:40.962Z,1017.38
2019-04-30T01:29:44.149Z,1017.37
2019-04-30T01:30:41.359Z,1017.39
2019-04-30T01:31:40.802Z,1017.39
2019-04-30T01:32:41.595Z,1017.45
2019-04-30T01:33:39.953Z,1017.41
2019-04-30T01:34:44.124Z,1017.36
2019-04-30T01:35:41.283Z,1017.35
2019-04-30T01:36:43.441Z,1017.45
2019-04-30T01:37:42.570Z,1017.28
2019-04-30T01:38:44.850Z,1017.33
2019-04-30T01:39:42.611Z,1017.35
2019-04-30T01:40:42.817Z,1017.34
2019-04-30T01:41:44.097Z,1017.29
2019-04-30T01:42:47.984Z,1017.33
2019-04-30T01:43:43.599Z,1017.38
2019-04-30T01:44:43.403Z,1017.37
2019-04-30T01:45:44.103Z,1017.40
2019-04-30T01:46:47.297Z,1017.38
2019-04-30T01:47:44.311Z,1017.37
2019-04-30T01:48:43.660Z,1017.37
2019-04-30T01:49:44.948Z,1017.35
2019-04-30T01:50:43.937Z,1017.40
2019-04-30T01:51:43.041Z,1017.39
2019-04-30T01:52:43.187Z,1017.44
2019-04-30T01:53:44.842Z,1017.40
2019-04-30T01:54:43.486Z,1017.41
2019-04-30T01:55:43.649Z,1017.41
2019-04-30T01:56:44.119Z,1017.39
2019-04-30T01:57:44.604Z,1017.43
2019-04-30T01:58:44.189Z,1017.42
2019-04-30T01:59:44.318Z,1017.46
2019-04-30T02:00:44.454Z,1017.43
2019-04-30T02:01:45.605Z,1017.42
2019-04-30T02:02:44.878Z,1017.45
2019-04-30T02:03:45.027Z,1017.44
2019-04-30T02:04:45.158Z,1017.45
2019-04-30T02:05:46.100Z,1017.42
2019-04-30T02:06:45.449Z,1017.45
2019-04-30T02:07:46.049Z,1017.42
2019-04-30T02:08:46.739Z,1017.41
2019-04-30T02:09:45.965Z,1017.40
2019-04-30T02:10:46.186Z,1017.42
2019-04-30T02:11:46.446Z,1017.47
2019-04-30T02:12:49.185Z,1017.46
2019-04-30T02:13:46.728Z,1017.40
2019-04-30T02:14:46.960Z,1017.36
2019-04-30T02:15:49.051Z,1017.45
2019-04-30T02:16:47.257Z,1017.47
2019-04-30T02:17:50.266Z,1017.45
2019-04-30T02:18:49.497Z,1017.47
2019-04-30T02:19:56.567Z,1017.50
2019-04-30T02:20:50.025Z,1017.44
2019-04-30T02:21:49.216Z,1017.44
2019-04-30T02:22:48.680Z,1017.47
2019-04-30T02:23:49.573Z,1017.42
2019-04-30T02:24:48.810Z,1017.40
2019-04-30T02:25:49.180Z,1017.39
2019-04-30T02:26:50.091Z,1017.44
2019-04-30T02:27:49.305Z,1017.42
2019-04-30T02:28:49.612Z,1017.42
2019-04-30T02:29:50.534Z,1017.43
2019-04-30T02:30:50.707Z,1017.41
2019-04-30T02:31:50.896Z,1017.41
2019-04-30T02:32:52.525Z,1017.34
2019-04-30T02:33:50.415Z,1017.39
2019-04-30T02:34:51.360Z,1017.39
2019-04-30T02:35:51.151Z,1017.39
2019-04-30T02:36:51.601Z,1017.42
2019-04-30T02:37:50.934Z,1017.43
2019-04-30T02:38:51.635Z,1017.35
2019-04-30T02:39:51.381Z,1017.42
2019-04-30T02:40:51.495Z,1017.43
2019-04-30T02:41:51.626Z,1017.43
2019-04-30T02:42:51.748Z,1017.43
2019-04-30T02:43:52.129Z,1017.36
2019-04-30T02:44:53.132Z,1017.39
2019-04-30T02:45:53.109Z,1017.41
2019-04-30T02:46:52.571Z,1017.38
2019-04-30T02:47:52.801Z,1017.32
2019-04-30T02:48:52.954Z,1017.41
2019-04-30T02:49:53.647Z,1017.37
2019-04-30T02:50:53.302Z,1017.30
2019-04-30T02:51:53.436Z,1017.36
2019-04-30T02:52:53.662Z,1017.34
2019-04-30T02:53:53.905Z,1017.33
2019-04-30T02:54:54.134Z,1017.42
2019-04-30T02:55:54.251Z,1017.32
2019-04-30T02:56:54.427Z,1017.38
2019-04-30T02:57:54.503Z,1017.37
2019-04-30T02:58:55.728Z,1017.34
2019-04-30T02:59:55.121Z,1017.35
2019-04-30T03:00:55.098Z,1017.32
2019-04-30T03:01:55.233Z,1017.39
2019-04-30T03:02:55.353Z,1017.31
2019-04-30T03:03:56.114Z,1017.34
2019-04-30T03:04:55.639Z,1017.34
2019-04-30T03:05:55.765Z,1017.33
2019-04-30T03:06:55.895Z,1017.36
2019-04-30T03:07:56.014Z,1017.35
2019-04-30T03:08:57.145Z,1017.39
2019-04-30T03:09:56.360Z,1017.32
2019-04-30T03:10:56.626Z,1017.35
2019-04-30T03:11:56.611Z,1017.34
2019-04-30T03:12:56.854Z,1017.33
2019-04-30T03:13:59.270Z,1017.34
2019-04-30T03:15:00.433Z,1017.31
2019-04-30T03:15:59.317Z,1017.33
2019-04-30T03:17:00.121Z,1017.27
2019-04-30T03:18:00.669Z,1017.27
2019-04-30T03:18:59.535Z,1017.33
2019-04-30T03:20:03.126Z,1017.27
2019-04-30T03:20:59.938Z,1017.30
2019-04-30T03:22:00.328Z,1017.30
2019-04-30T03:23:02.466Z,1017.24
2019-04-30T03:24:00.652Z,1017.27
2019-04-30T03:25:00.200Z,1017.22
2019-04-30T03:25:59.795Z,1017.27
2019-04-30T03:27:00.529Z,1017.31
2019-04-30T03:28:00.301Z,1017.23
2019-04-30T03:29:01.613Z,1017.21
2019-04-30T03:30:00.257Z,1017.29
2019-04-30T03:31:04.246Z,1017.28
2019-04-30T03:32:03.289Z,1017.22
2019-04-30T03:33:02.976Z,1017.25
2019-04-30T03:34:25.458Z,1017.20
2019-04-30T03:35:03.377Z,1017.27
2019-04-30T03:36:02.845Z,1017.24
2019-04-30T03:37:02.392Z,1017.24
2019-04-30T03:38:02.135Z,1017.31
2019-04-30T03:39:01.865Z,1017.23
2019-04-30T03:40:02.096Z,1017.23
2019-04-30T03:41:02.336Z,1017.25
2019-04-30T03:42:03.122Z,1017.27
2019-04-30T03:43:03.037Z,1017.18
2019-04-30T03:44:17.090Z,1017.28
2019-04-30T03:45:05.614Z,1017.25
2019-04-30T03:46:03.293Z,1017.22
2019-04-30T03:47:03.434Z,1017.22
2019-04-30T03:48:04.137Z,1017.23
2019-04-30T03:49:03.773Z,1017.24
2019-04-30T03:50:03.900Z,1017.36
2019-04-30T03:51:04.124Z,1017.30
2019-04-30T03:52:05.123Z,1017.31
2019-04-30T03:53:04.478Z,1017.32
2019-04-30T03:54:04.623Z,1017.32
2019-04-30T03:55:04.802Z,1017.34
2019-04-30T03:56:05.621Z,1017.33
2019-04-30T03:57:05.102Z,1017.32
2019-04-30T03:58:05.229Z,1017.30
2019-04-30T03:59:05.473Z,1017.30
2019-04-30T04:00:05.598Z,1017.35
2019-04-30T04:01:05.741Z,1017.32
2019-04-30T04:02:12.284Z,1017.28
2019-04-30T04:03:09.527Z,1017.39
2019-04-30T04:04:06.237Z,1017.33
2019-04-30T04:05:06.393Z,1017.39
2019-04-30T04:06:09.402Z,1017.37
2019-04-30T04:07:10.059Z,1017.37
2019-04-30T04:08:09.583Z,1017.41
2019-04-30T04:09:10.101Z,1017.35
2019-04-30T04:10:09.887Z,1017.38
2019-04-30T04:11:09.997Z,1017.39
2019-04-30T04:12:11.853Z,1017.40
2019-04-30T04:13:10.210Z,1017.38
2019-04-30T04:14:09.298Z,1017.37
2019-04-30T04:15:10.408Z,1017.36
2019-04-30T04:16:09.732Z,1017.47
2019-04-30T04:17:09.954Z,1017.35
2019-04-30T04:18:10.598Z,1017.37
2019-04-30T04:19:10.131Z,1017.34
2019-04-30T04:20:10.749Z,1017.39
2019-04-30T04:21:16.217Z,1017.38
2019-04-30T04:22:12.395Z,1017.41
2019-04-30T04:23:10.699Z,1017.41
2019-04-30T04:24:10.727Z,1017.36
2019-04-30T04:25:13.251Z,1017.40
2019-04-30T04:26:11.276Z,1017.41
2019-04-30T04:27:10.500Z,1017.41
2019-04-30T04:28:11.126Z,1017.42
2019-04-30T04:29:12.488Z,1017.44
2019-04-30T04:30:12.121Z,1017.39
2019-04-30T04:31:12.136Z,1017.38
2019-04-30T04:32:11.363Z,1017.34
2019-04-30T04:33:12.126Z,1017.34
2019-04-30T04:34:11.716Z,1017.37
2019-04-30T04:35:12.706Z,1017.37
2019-04-30T04:36:13.639Z,1017.35
2019-04-30T04:37:12.247Z,1017.32
2019-04-30T04:38:13.137Z,1017.35
2019-04-30T04:39:12.612Z,1017.36
2019-04-30T04:40:12.751Z,1017.28
2019-04-30T04:41:12.862Z,1017.35
2019-04-30T04:42:12.985Z,1017.35
2019-04-30T04:43:13.220Z,1017.32
2019-04-30T04:44:13.375Z,1017.32
2019-04-30T04:45:13.502Z,1017.26
2019-04-30T04:46:13.645Z,1017.35
2019-04-30T04:47:16.054Z,1017.31
2019-04-30T04:48:14.934Z,1017.30
2019-04-30T04:49:14.123Z,1017.32
2019-04-30T04:50:14.339Z,1017.33
2019-04-30T04:51:31.450Z,1017.35
2019-04-30T04:52:15.782Z,1017.37
2019-04-30T04:53:15.632Z,1017.40
2019-04-30T04:54:15.106Z,1017.40
2019-04-30T04:55:15.329Z,1017.41
2019-04-30T04:56:15.584Z,1017.42
2019-04-30T04:57:19.579Z,1017.41
2019-04-30T04:58:21.569Z,1017.43
2019-04-30T04:59:16.080Z,1017.45
2019-04-30T05:00:16.324Z,1017.46
2019-04-30T05:01:16.660Z,1017.47
2019-04-30T05:02:19.475Z,1017.41
2019-04-30T05:03:16.885Z,1017.45
2019-04-30T05:04:19.724Z,1017.43
2019-04-30T05:05:19.249Z,1017.46
2019-04-30T05:06:21.255Z,1017.42
2019-04-30T05:07:19.570Z,1017.43
2019-04-30T05:08:18.582Z,1017.46
2019-04-30T05:09:19.474Z,1017.48
2019-04-30T05:10:19.310Z,1017.45
2019-04-30T05:11:19.327Z,1017.48
2019-04-30T05:12:19.314Z,1017.43
2019-04-30T05:13:19.229Z,1017.48
2019-04-30T05:14:19.646Z,1017.46
2019-04-30T05:15:19.453Z,1017.49
2019-04-30T05:16:20.657Z,1017.51
2019-04-30T05:17:19.523Z,1017.56
2019-04-30T05:18:22.779Z,1017.50
2019-04-30T05:19:20.627Z,1017.57
2019-04-30T05:20:19.836Z,1017.57
2019-04-30T05:21:20.062Z,1017.60
2019-04-30T05:22:20.318Z,1017.59
2019-04-30T05:23:21.882Z,1017.56
2019-04-30T05:24:21.584Z,1017.64
2019-04-30T05:25:21.669Z,1017.60
2019-04-30T05:26:22.823Z,1017.60
2019-04-30T05:27:21.156Z,1017.59
2019-04-30T05:28:21.283Z,1017.58
2019-04-30T05:29:21.518Z,1017.61
2019-04-30T05:30:22.139Z,1017.63
2019-04-30T05:31:21.846Z,1017.63
2019-04-30T05:32:22.079Z,1017.60
2019-04-30T05:33:23.243Z,1017.57
2019-04-30T05:34:23.140Z,1017.66
2019-04-30T05:35:22.642Z,1017.60
2019-04-30T05:36:22.773Z,1017.55
2019-04-30T05:37:22.915Z,1017.53
2019-04-30T05:38:23.091Z,1017.50
2019-04-30T05:39:23.235Z,1017.42
2019-04-30T05:40:23.349Z,1017.47
2019-04-30T05:41:23.501Z,1017.42
2019-04-30T05:42:23.739Z,1017.40
2019-04-30T05:43:23.871Z,1017.38
2019-04-30T05:44:23.993Z,1017.32
2019-04-30T05:45:24.104Z,1017.35
2019-04-30T05:46:24.335Z,1017.37
2019-04-30T05:47:24.456Z,1017.27
2019-04-30T05:48:24.726Z,1017.27
2019-04-30T05:49:24.836Z,1017.30
2019-04-30T05:50:25.638Z,1017.33
2019-04-30T05:51:25.108Z,1017.35
2019-04-30T05:52:25.257Z,1017.31
2019-04-30T05:53:25.666Z,1017.36
2019-04-30T05:54:25.536Z,1017.40
2019-04-30T05:55:25.768Z,1017.46
2019-04-30T05:56:25.910Z,1017.38
2019-04-30T05:57:26.033Z,1017.41
2019-04-30T05:58:26.657Z,1017.44
2019-04-30T05:59:26.417Z,1017.47
2019-04-30T06:00:30.279Z,1017.36
2019-04-30T06:01:26.702Z,1017.38
2019-04-30T06:02:30.634Z,1017.41
2019-04-30T06:03:32.511Z,1017.42
2019-04-30T06:04:29.480Z,1017.39
2019-04-30T06:05:28.570Z,1017.42
2019-04-30T06:06:29.002Z,1017.44
2019-04-30T06:07:29.799Z,1017.43
2019-04-30T06:08:29.222Z,1017.40
2019-04-30T06:09:33.760Z,1017.44
2019-04-30T06:10:29.495Z,1017.41
2019-04-30T06:11:29.520Z,1017.35
2019-04-30T06:12:29.166Z,1017.45
2019-04-30T06:13:28.850Z,1017.47
2019-04-30T06:14:29.127Z,1017.45
2019-04-30T06:15:29.234Z,1017.45
2019-04-30T06:16:30.143Z,1017.45
2019-04-30T06:17:29.595Z,1017.49
2019-04-30T06:18:30.656Z,1017.41
2019-04-30T06:19:30.000Z,1017.47
2019-04-30T06:20:30.251Z,1017.45
2019-04-30T06:21:30.374Z,1017.43
2019-04-30T06:22:30.502Z,1017.44
2019-04-30T06:23:31.161Z,1017.49
2019-04-30T06:24:30.873Z,1017.40
2019-04-30T06:25:45.577Z,1017.39
2019-04-30T06:26:33.128Z,1017.40
2019-04-30T06:27:31.301Z,1017.30
2019-04-30T06:28:31.510Z,1017.31
2019-04-30T06:29:31.721Z,1017.36
2019-04-30T06:30:32.173Z,1017.30
2019-04-30T06:31:37.246Z,1017.18
2019-04-30T06:32:34.304Z,1017.19
2019-04-30T06:33:32.507Z,1017.16
2019-04-30T06:34:32.625Z,1017.11
2019-04-30T06:35:32.842Z,1017.02
2019-04-30T06:36:33.652Z,1016.96
2019-04-30T06:37:33.267Z,1016.76
2019-04-30T06:38:33.387Z,1016.70
2019-04-30T06:39:33.599Z,1016.76
2019-04-30T06:40:33.750Z,1016.73
2019-04-30T06:41:34.657Z,1016.78
2019-04-30T06:42:34.001Z,1016.86
2019-04-30T06:43:34.659Z,1016.86
2019-04-30T06:44:37.377Z,1016.96
2019-04-30T06:45:38.644Z,1016.97
2019-04-30T06:46:34.636Z,1016.97
2019-04-30T06:47:34.764Z,1016.79
2019-04-30T06:48:34.896Z,1016.75
2019-04-30T06:49:35.650Z,1016.84
2019-04-30T06:50:35.245Z,1016.75
2019-04-30T06:51:35.464Z,1016.78
2019-04-30T06:52:35.617Z,1016.88
2019-04-30T06:53:35.760Z,1016.82
2019-04-30T06:54:36.659Z,1016.82
2019-04-30T06:55:36.031Z,1016.81
2019-04-30T06:56:38.720Z,1016.88
2019-04-30T06:57:38.288Z,1016.81
2019-04-30T06:58:39.180Z,1016.77
2019-04-30T06:59:39.217Z,1016.77
2019-04-30T07:00:36.872Z,1016.73
2019-04-30T07:01:38.769Z,1016.76
2019-04-30T07:02:39.168Z,1016.73
2019-04-30T07:03:38.825Z,1016.77
2019-04-30T07:04:37.587Z,1016.84
2019-04-30T07:05:38.898Z,1016.78
2019-04-30T07:06:44.008Z,1016.74
2019-04-30T07:07:41.674Z,1016.70
2019-04-30T07:08:42.798Z,1016.69
2019-04-30T07:09:51.966Z,1016.71
2019-04-30T07:10:52.940Z,1016.76
2019-04-30T07:11:40.967Z,1016.83
2019-04-30T07:12:40.165Z,1016.72
2019-04-30T07:13:39.594Z,1016.77
2019-04-30T07:14:41.953Z,1016.70
2019-04-30T07:15:40.850Z,1016.73
2019-04-30T07:16:39.953Z,1016.78
2019-04-30T07:17:40.699Z,1016.75
2019-04-30T07:18:41.341Z,1016.78
2019-04-30T07:19:53.353Z,1016.74
2019-04-30T07:20:42.755Z,1016.78
2019-04-30T07:21:42.856Z,1016.76
2019-04-30T07:22:50.084Z,1016.74
2019-04-30T07:23:43.271Z,1016.77
2019-04-30T07:24:41.495Z,1016.62
2019-04-30T07:25:41.625Z,1016.62
2019-04-30T07:26:41.750Z,1016.52
2019-04-30T07:27:41.891Z,1016.44
2019-04-30T07:29:44.331Z,1016.38
2019-04-30T07:30:42.545Z,1016.39
2019-04-30T07:31:43.667Z,1016.42
2019-04-30T07:32:42.905Z,1016.50
2019-04-30T07:33:43.084Z,1016.41
2019-04-30T07:34:43.276Z,1016.50
2019-04-30T07:35:43.413Z,1016.46
2019-04-30T07:36:49.133Z,1016.44
2019-04-30T07:37:45.685Z,1016.51
2019-04-30T07:38:51.890Z,1016.42
2019-04-30T07:39:46.675Z,1016.39
2019-04-30T07:40:44.138Z,1016.33
2019-04-30T07:41:44.682Z,1016.36
2019-04-30T07:42:44.971Z,1016.23
2019-04-30T07:43:45.694Z,1016.27
2019-04-30T07:44:44.799Z,1016.30
2019-04-30T07:45:45.671Z,1016.27
2019-04-30T07:46:45.439Z,1016.22
2019-04-30T07:47:46.309Z,1016.22
2019-04-30T07:48:45.680Z,1016.24
2019-04-30T07:49:51.831Z,1016.23
2019-04-30T07:50:51.487Z,1016.20
2019-04-30T07:51:46.847Z,1016.20
2019-04-30T07:53:01.047Z,1016.19
2019-04-30T07:53:49.635Z,1016.22
2019-04-30T07:54:46.660Z,1016.18
2019-04-30T07:55:49.385Z,1016.17
2019-04-30T07:56:47.048Z,1016.16
2019-04-30T07:57:50.117Z,1016.20
2019-04-30T07:58:47.388Z,1016.19
2019-04-30T07:59:49.701Z,1016.17
2019-04-30T08:00:50.341Z,1016.11
2019-04-30T08:02:03.251Z,1016.04
2019-04-30T08:02:50.437Z,1016.05
2019-04-30T08:03:50.244Z,1015.99
2019-04-30T08:04:51.131Z,1015.95
2019-04-30T08:05:50.012Z,1015.74
2019-04-30T08:06:50.032Z,1015.41
2019-04-30T08:07:49.960Z,1015.38
2019-04-30T08:08:50.759Z,1015.10
2019-04-30T08:09:34.156Z,1016.43
2019-04-30T08:09:50.250Z,1014.99
2019-04-30T08:10:50.999Z,1015.06
2019-04-30T08:11:49.659Z,1015.19
2019-04-30T08:12:50.852Z,1015.26
2019-04-30T08:13:51.710Z,1015.34
2019-04-30T08:14:50.303Z,1015.40
2019-04-30T08:15:50.418Z,1015.41
2019-04-30T08:17:12.181Z,1015.41
2019-04-30T08:18:02.842Z,1015.45
2019-04-30T08:18:51.966Z,1015.44
2019-04-30T08:19:51.195Z,1015.36
2019-04-30T08:20:51.691Z,1015.33
2019-04-30T08:21:52.181Z,1015.32
2019-04-30T08:22:52.692Z,1015.32
2019-04-30T08:23:51.897Z,1015.32
2019-04-30T08:24:52.024Z,1015.30
2019-04-30T08:25:52.698Z,1015.21
2019-04-30T08:26:52.431Z,1015.17
2019-04-30T08:27:52.655Z,1015.08
2019-04-30T08:28:53.676Z,1014.92
2019-04-30T08:29:53.023Z,1014.84
2019-04-30T08:30:53.165Z,1014.80
2019-04-30T08:31:53.287Z,1014.77
2019-04-30T08:32:53.415Z,1014.71
2019-04-30T08:33:53.654Z,1014.61
2019-04-30T08:34:53.770Z,1014.67
2019-04-30T08:35:53.915Z,1014.61
2019-04-30T08:36:54.860Z,1014.60
2019-04-30T08:37:54.267Z,1014.69
2019-04-30T08:38:55.196Z,1014.70
2019-04-30T08:39:55.177Z,1014.74
2019-04-30T08:40:58.297Z,1014.64
2019-04-30T08:41:56.011Z,1014.44
2019-04-30T08:42:55.186Z,1014.22
2019-04-30T08:43:55.409Z,1013.96
2019-04-30T08:44:55.680Z,1013.81
2019-04-30T08:45:56.685Z,1013.83
2019-04-30T08:46:56.191Z,1013.91
2019-04-30T08:47:56.678Z,1013.88
2019-04-30T08:48:56.275Z,1013.85
2019-04-30T08:49:56.580Z,1013.96
2019-04-30T08:50:56.693Z,1013.82
2019-04-30T08:51:58.575Z,1013.70
2019-04-30T08:52:56.949Z,1013.66
2019-04-30T08:53:58.703Z,1013.70
2019-04-30T08:55:10.786Z,1013.77
2019-04-30T08:55:59.147Z,1013.61
2019-04-30T08:56:59.415Z,1013.34
2019-04-30T08:58:09.325Z,1013.16
2019-04-30T08:59:00.042Z,1012.80
2019-04-30T09:00:00.188Z,1012.58
2019-04-30T09:00:58.848Z,1012.57
2019-04-30T09:02:12.560Z,1012.33
2019-04-30T09:02:59.731Z,1012.13
2019-04-30T09:03:59.969Z,1011.93
2019-04-30T09:05:00.516Z,1011.84
2019-04-30T09:05:59.702Z,1011.93
2019-04-30T09:06:59.965Z,1011.95
2019-04-30T09:08:00.632Z,1012.02
2019-04-30T09:09:00.681Z,1012.10
2019-04-30T09:10:01.288Z,1012.20
2019-04-30T09:11:01.249Z,1012.17
2019-04-30T09:12:00.450Z,1012.22
2019-04-30T09:13:00.724Z,1012.21
2019-04-30T09:14:00.873Z,1012.17
2019-04-30T09:15:00.996Z,1012.06
2019-04-30T09:16:01.123Z,1012.00
2019-04-30T09:17:01.380Z,1011.97
2019-04-30T09:18:05.999Z,1011.96
2019-04-30T09:19:04.191Z,1012.02
2019-04-30T09:20:01.930Z,1012.03
2019-04-30T09:21:06.244Z,1012.02
2019-04-30T09:22:03.354Z,1012.01
2019-04-30T09:23:02.580Z,1012.01
2019-04-30T09:24:02.711Z,1012.11
2019-04-30T09:25:02.870Z,1012.16
2019-04-30T09:26:04.017Z,1012.17
2019-04-30T09:27:03.275Z,1012.30
2019-04-30T09:28:04.534Z,1012.32
2019-04-30T09:29:04.704Z,1012.38
2019-04-30T09:30:03.822Z,1012.39
2019-04-30T09:31:03.970Z,1012.44
2019-04-30T09:32:04.101Z,1012.42
2019-04-30T09:33:04.254Z,1012.47
2019-04-30T09:34:14.291Z,1012.43
2019-04-30T09:35:05.609Z,1012.35
2019-04-30T09:36:04.846Z,1012.34
2019-04-30T09:37:05.711Z,1012.26
2019-04-30T09:38:05.215Z,1012.26
2019-04-30T09:39:05.357Z,1012.15
2019-04-30T09:40:15.303Z,1012.13
2019-04-30T09:41:09.273Z,1012.07
2019-04-30T09:42:05.896Z,1012.11
2019-04-30T09:43:06.006Z,1012.21
2019-04-30T09:44:07.215Z,1012.31
2019-04-30T09:45:06.490Z,1012.46
2019-04-30T09:46:19.061Z,1012.41
2019-04-30T09:47:08.988Z,1012.56
2019-04-30T09:48:09.388Z,1012.59
2019-04-30T09:49:09.625Z,1012.60
2019-04-30T09:50:09.131Z,1012.54
2019-04-30T09:51:10.232Z,1012.58
2019-04-30T09:52:09.229Z,1012.59
2019-04-30T09:53:10.029Z,1012.62
2019-04-30T09:54:12.735Z,1012.67
2019-04-30T09:55:09.599Z,1012.71
2019-04-30T09:56:09.555Z,1012.68
2019-04-30T09:57:11.494Z,1012.63
2019-04-30T09:58:17.032Z,1012.61
2019-04-30T09:59:11.121Z,1012.65
2019-04-30T10:00:09.488Z,1012.55
2019-04-30T10:01:11.105Z,1012.47
2019-04-30T10:02:09.667Z,1012.41
2019-04-30T10:03:11.035Z,1012.35
2019-04-30T10:04:11.591Z,1012.18
2019-04-30T10:05:10.963Z,1012.11
2019-04-30T10:06:10.731Z,1012.09
2019-04-30T10:07:10.489Z,1011.98
2019-04-30T10:08:10.657Z,1012.06
2019-04-30T10:09:10.791Z,1012.01
2019-04-30T10:10:11.496Z,1011.97
2019-04-30T10:11:12.168Z,1011.96
2019-04-30T10:12:11.311Z,1011.85
2019-04-30T10:13:11.460Z,1011.78
2019-04-30T10:14:11.604Z,1011.79
2019-04-30T10:15:11.781Z,1011.66
2019-04-30T10:16:11.928Z,1011.64
2019-04-30T10:17:12.113Z,1011.57
2019-04-30T10:18:12.274Z,1011.64
2019-04-30T10:19:14.883Z,1011.73
2019-04-30T10:20:12.646Z,1011.87
2019-04-30T10:21:12.882Z,1011.91
2019-04-30T10:22:13.022Z,1011.94
2019-04-30T10:23:13.177Z,1011.92
2019-04-30T10:24:15.681Z,1011.92
2019-04-30T10:25:14.529Z,1011.92
2019-04-30T10:26:14.223Z,1011.71
2019-04-30T10:27:13.911Z,1011.56
2019-04-30T10:28:14.017Z,1011.51
2019-04-30T10:29:14.286Z,1011.29
2019-04-30T10:30:14.534Z,1011.16
2019-04-30T10:31:14.639Z,1011.05
2019-04-30T10:32:14.869Z,1010.93
2019-04-30T10:33:15.095Z,1010.75
2019-04-30T10:34:16.342Z,1010.63
2019-04-30T10:35:15.574Z,1010.56
2019-04-30T10:36:15.737Z,1010.51
2019-04-30T10:37:15.868Z,1010.36
2019-04-30T10:38:15.995Z,1010.39
2019-04-30T10:39:16.139Z,1010.40
2019-04-30T10:40:16.278Z,1010.49
2019-04-30T10:41:18.286Z,1010.55
2019-04-30T10:42:16.646Z,1010.54
2019-04-30T10:43:16.780Z,1010.59
2019-04-30T10:44:18.695Z,1010.60
2019-04-30T10:45:18.596Z,1010.67
2019-04-30T10:46:17.229Z,1010.78
2019-04-30T10:47:19.263Z,1010.76
2019-04-30T10:48:17.576Z,1010.83
2019-04-30T10:49:19.220Z,1010.96
2019-04-30T10:50:17.902Z,1010.87
2019-04-30T10:51:18.929Z,1010.87
2019-04-30T10:52:19.342Z,1010.87
2019-04-30T10:53:19.439Z,1010.91
2019-04-30T10:54:26.085Z,1010.91
2019-04-30T10:55:21.723Z,1010.92
2019-04-30T10:56:19.338Z,1011.00
2019-04-30T10:57:20.258Z,1010.97
2019-04-30T10:58:19.376Z,1010.99
2019-04-30T10:59:19.479Z,1011.00
2019-04-30T11:00:19.622Z,1010.98
2019-04-30T11:01:19.746Z,1010.96
2019-04-30T11:02:19.892Z,1011.03
2019-04-30T11:03:22.932Z,1011.02
2019-04-30T11:04:21.173Z,1011.16
2019-04-30T11:05:21.114Z,1011.15
2019-04-30T11:06:21.604Z,1011.24
2019-04-30T11:07:20.829Z,1011.26
2019-04-30T11:08:20.984Z,1011.25
2019-04-30T11:09:21.123Z,1011.25
2019-04-30T11:10:21.239Z,1011.49
2019-04-30T11:11:21.476Z,1011.49
2019-04-30T11:12:21.614Z,1011.50
2019-04-30T11:13:21.743Z,1011.53
2019-04-30T11:14:21.901Z,1011.54
2019-04-30T11:15:22.016Z,1011.63
2019-04-30T11:16:22.160Z,1011.64
2019-04-30T11:17:22.366Z,1011.69
2019-04-30T11:18:22.703Z,1011.65
2019-04-30T11:19:22.900Z,1011.63
2019-04-30T11:20:23.010Z,1011.69
2019-04-30T11:21:23.148Z,1011.64
2019-04-30T11:22:23.300Z,1011.70
2019-04-30T11:23:23.501Z,1011.64
2019-04-30T11:24:35.800Z,1011.76
2019-04-30T11:25:25.210Z,1011.74
2019-04-30T11:26:24.339Z,1011.76
2019-04-30T11:27:25.625Z,1011.80
2019-04-30T11:28:24.728Z,1011.88
2019-04-30T11:29:24.584Z,1011.87
2019-04-30T11:30:24.956Z,1012.00
2019-04-30T11:31:25.981Z,1011.94
2019-04-30T11:32:25.124Z,1011.96
2019-04-30T11:33:25.829Z,1011.93
2019-04-30T11:34:28.046Z,1011.97
2019-04-30T11:35:25.494Z,1011.87
2019-04-30T11:36:25.733Z,1011.84
2019-04-30T11:37:25.866Z,1011.87
2019-04-30T11:38:26.113Z,1011.80
2019-04-30T11:39:26.750Z,1011.80
2019-04-30T11:40:34.439Z,1011.92
2019-04-30T11:41:31.012Z,1011.90
2019-04-30T11:42:28.861Z,1011.89
2019-04-30T11:43:27.082Z,1011.97
2019-04-30T11:44:31.326Z,1012.04
2019-04-30T11:45:29.400Z,1012.08
2019-04-30T11:46:28.818Z,1012.05
2019-04-30T11:47:28.842Z,1012.04
2019-04-30T11:48:28.930Z,1011.94
2019-04-30T11:49:29.743Z,1011.93
2019-04-30T11:50:30.142Z,1012.03
2019-04-30T11:51:29.513Z,1011.85
2019-04-30T11:52:29.682Z,1011.94
2019-04-30T11:53:30.706Z,1011.85
2019-04-30T11:54:30.126Z,1011.91
2019-04-30T11:55:29.769Z,1011.89
2019-04-30T11:56:29.485Z,1012.04
2019-04-30T11:57:30.620Z,1011.99
2019-04-30T11:58:30.582Z,1012.01
2019-04-30T11:59:31.045Z,1011.97
2019-04-30T12:00:30.743Z,1011.91
2019-04-30T12:01:31.251Z,1011.90
2019-04-30T12:02:30.729Z,1011.88
2019-04-30T12:03:30.862Z,1011.85
2019-04-30T12:04:30.995Z,1011.84
2019-04-30T12:05:31.147Z,1011.66
2019-04-30T12:06:31.292Z,1011.60
2019-04-30T12:07:32.241Z,1011.47